Time;durP1;ratioP1;P1;durP2;ratioP2;P2;SDS_P1;SDS_P2;PMS_P1;PMS_P2;Temp;Humidity;BMP_temperature;BMP_pressure;BME280_temperature;BME280_humidity;BME280_pressure;Samples;Min_cycle;Max_cycle;Signal;HPM_P1;HPM_P2
2022/07/06 00:14:59;;;;;;;2.37;1.57;;;22.80;48.10;;;23.06;36.13;99188.97;4885789;28;124703;-87
2022/07/06 00:17:26;;;;;;;2.10;1.87;;;22.80;48.60;;;23.02;36.17;99192.97;4981119;28;119209;-87
2022/07/06 00:19:52;;;;;;;2.97;1.90;;;22.70;48.60;;;22.94;36.34;99190.06;4978041;28;118783;-87
2022/07/06 00:22:19;;;;;;;2.50;1.60;;;22.60;48.90;;;22.88;36.41;99188.75;4980908;28;124720;-86
2022/07/06 00:24:45;;;;;;;3.10;1.60;;;22.60;49.00;;;22.84;36.83;99184.31;4982303;28;123982;-87
2022/07/06 00:27:12;;;;;;;2.77;1.80;;;22.50;49.10;;;22.81;36.64;99177.44;4985071;28;119074;-88
2022/07/06 00:29:43;;;;;;;2.90;1.73;;;22.50;49.20;;;22.77;36.98;99175.75;4974018;28;119013;-88
2022/07/06 00:32:12;;;;;;;2.10;1.90;;;22.40;49.30;;;22.71;36.97;99184.56;4975739;28;124415;-88
2022/07/06 00:34:39;;;;;;;2.47;1.87;;;22.40;49.50;;;22.69;36.98;99192.56;4978243;28;123950;-88
2022/07/06 00:37:06;;;;;;;2.13;1.60;;;22.40;49.60;;;22.66;37.02;99192.53;4987228;28;119517;-86
2022/07/06 00:39:34;;;;;;;2.90;2.10;;;22.30;49.80;;;22.61;37.19;99188.03;4982055;28;119265;-86
2022/07/06 00:42:01;;;;;;;2.10;1.50;;;22.30;50.20;;;22.55;37.05;99194.41;4968473;28;124212;-87
2022/07/06 00:44:28;;;;;;;4.13;2.00;;;22.20;50.10;;;22.50;37.43;99184.28;4980280;28;124250;-87
2022/07/06 00:46:55;;;;;;;2.93;2.13;;;22.10;50.10;;;22.46;37.47;99184.25;4982765;28;119952;-88
2022/07/06 00:52:08;;;;;;;2.80;1.83;;;22.00;50.40;;;22.41;37.62;99178.16;4971934;28;124023;-86
2022/07/06 00:54:36;;;;;;;3.00;2.20;;;22.00;50.40;;;22.38;37.95;99187.34;4985491;28;124207;-85
2022/07/06 00:57:03;;;;;;;1.80;1.67;;;22.10;50.90;;;22.33;37.46;99180.06;4994806;28;120444;-87
2022/07/06 00:59:30;;;;;;;2.20;1.80;;;21.90;50.60;;;22.30;37.46;99186.47;4978855;28;120067;-86
2022/07/06 01:01:57;;;;;;;4.27;1.80;;;21.90;50.60;;;22.24;37.75;99179.53;4982849;28;124094;-86
2022/07/06 01:04:24;;;;;;;3.67;1.80;;;21.90;50.60;;;22.23;37.98;99180.72;4976997;28;123886;-86
2022/07/06 01:06:51;;;;;;;2.90;1.53;;;21.90;50.70;;;22.17;37.90;99177.41;4978575;28;119285;-85
2022/07/06 01:09:17;;;;;;;2.73;1.70;;;21.80;50.70;;;22.15;37.87;99181.78;4986172;28;118809;-87
2022/07/06 01:11:44;;;;;;;3.07;1.87;;;21.80;50.90;;;22.12;37.83;99179.75;4982439;28;124198;-88
2022/07/06 01:14:13;;;;;;;4.47;2.17;;;21.80;50.90;;;22.09;38.11;99186.94;4984057;28;123715;-84
2022/07/06 01:16:39;;;;;;;3.13;1.70;;;21.70;51.00;;;22.06;38.12;99177.25;5000152;28;119454;-87
2022/07/06 01:19:06;;;;;;;1.50;1.40;;;21.70;51.20;;;22.02;38.08;99182.00;4980238;28;119274;-88
2022/07/06 01:21:32;;;;;;;2.73;1.70;;;21.60;51.10;;;21.99;37.92;99182.78;4988734;28;123912;-87
2022/07/06 01:23:59;;;;;;;2.00;1.60;;;21.60;51.10;;;21.97;38.10;99179.53;4980694;28;123819;-87
2022/07/06 01:26:25;;;;;;;4.90;2.10;;;21.60;51.20;;;21.92;38.29;99184.66;4986550;28;120055;-87
2022/07/06 01:28:52;;;;;;;2.13;1.57;;;21.50;51.30;;;21.88;38.59;99175.38;4979509;28;118901;-87
2022/07/06 01:31:26;;;;;;;2.50;1.77;;;21.50;51.50;;;21.83;38.58;99179.31;4973777;28;123265;-87
2022/07/06 01:33:55;;;;;;;3.47;1.30;;;21.50;51.50;;;21.79;38.31;99178.47;4978381;28;125400;-87
2022/07/06 01:36:22;;;;;;;2.67;1.80;;;21.40;51.50;;;21.79;38.41;99178.47;4981902;28;118758;-86
2022/07/06 01:38:52;;;;;;;2.17;1.50;;;21.40;51.60;;;21.77;38.26;99180.84;4992175;28;118929;-87
2022/07/06 01:41:19;;;;;;;2.17;1.60;;;21.40;51.60;;;21.72;38.42;99172.72;4981962;28;123780;-87
2022/07/06 01:43:46;;;;;;;3.33;1.73;;;21.30;51.70;;;21.68;38.88;99177.47;4991440;28;122795;-88
2022/07/06 01:46:13;;;;;;;3.10;1.77;;;21.30;51.60;;;21.61;38.83;99176.19;4977967;28;120592;-87
2022/07/06 01:48:41;;;;;;;2.47;1.93;;;21.30;51.70;;;21.54;38.98;99184.50;4979569;28;119928;-87
2022/07/06 01:51:08;;;;;;;4.53;1.90;;;21.20;51.90;;;21.49;38.73;99179.19;4977310;28;124106;-87
2022/07/06 01:53:35;;;;;;;5.63;2.10;;;21.10;52.10;;;21.44;39.12;99167.44;4978262;28;123837;-87
2022/07/06 01:56:01;;;;;;;2.20;1.67;;;21.00;52.20;;;21.38;39.31;99178.19;4982415;28;119622;-87
2022/07/06 01:58:28;;;;;;;3.13;1.70;;;21.00;52.20;;;21.31;39.41;99180.88;4979567;28;119453;-89
2022/07/06 02:00:54;;;;;;;2.50;1.47;;;21.00;52.30;;;21.24;39.17;99181.56;4979255;28;124473;-87
2022/07/06 02:03:21;;;;;;;8.70;1.70;;;20.90;52.40;;;21.21;39.34;99187.13;4983791;28;123734;-88
2022/07/06 02:05:48;;;;;;;3.33;2.07;;;20.90;52.60;;;21.14;39.45;99191.44;4986340;28;119648;-87
2022/07/06 02:08:17;;;;;;;3.63;2.13;;;20.80;52.80;;;21.07;39.67;99188.47;4970370;28;119307;-88
2022/07/06 02:10:43;;;;;;;2.40;1.83;;;20.70;52.90;;;21.02;40.07;99185.97;4983075;28;123995;-87
2022/07/06 02:13:10;;;;;;;2.80;1.70;;;20.70;53.00;;;20.96;39.84;99193.09;4971595;28;123856;-88
2022/07/06 02:15:36;;;;;;;2.70;1.83;;;20.60;53.10;;;20.88;40.27;99186.53;4972518;28;119401;-88
2022/07/06 02:18:03;;;;;;;3.87;1.87;;;20.60;53.30;;;20.83;40.18;99186.03;4976323;28;118999;-86
2022/07/06 02:20:29;;;;;;;3.10;1.63;;;20.50;53.40;;;20.76;40.26;99180.25;4987632;28;122959;-87
2022/07/06 02:22:56;;;;;;;6.07;1.57;;;20.40;53.60;;;20.71;40.35;99178.56;4984360;28;123548;-87
2022/07/06 02:25:22;;;;;;;3.17;2.00;;;20.40;53.70;;;20.63;40.93;99180.44;4984945;28;119426;-87
2022/07/06 02:27:49;;;;;;;2.37;1.80;;;20.30;53.90;;;20.59;40.81;99184.34;4979876;28;118984;-88
2022/07/06 02:30:15;;;;;;;3.87;2.30;;;20.30;54.20;;;20.54;41.07;99187.44;4979768;28;122503;-87
2022/07/06 02:32:43;;;;;;;3.80;2.00;;;20.20;54.30;;;20.47;41.38;99194.50;4987211;28;123947;-88
2022/07/06 02:35:09;;;;;;;5.13;2.07;;;20.20;54.60;;;20.41;41.42;99195.16;4990302;28;118958;-88
2022/07/06 02:37:36;;;;;;;2.93;1.87;;;20.10;54.70;;;20.38;41.50;99195.91;4979765;28;118994;-87
2022/07/06 02:40:03;;;;;;;3.80;1.80;;;20.00;55.00;;;20.32;41.88;99192.59;4984001;28;124066;-88
2022/07/06 02:42:29;;;;;;;2.27;2.00;;;20.00;55.30;;;20.28;41.88;99192.50;4989135;28;122760;-87
2022/07/06 02:44:56;;;;;;;3.70;2.20;;;19.90;55.50;;;20.23;42.16;99195.59;4980208;28;119304;-88
2022/07/06 02:47:22;;;;;;;3.43;2.07;;;19.90;55.70;;;20.18;42.30;99201.50;4984629;28;118906;-88
2022/07/06 02:49:49;;;;;;;5.23;2.10;;;19.90;55.90;;;20.13;42.16;99201.78;4979640;28;123993;-88
2022/07/06 02:52:15;;;;;;;8.90;2.10;;;19.70;55.80;;;20.09;42.49;99214.91;4960249;28;123276;-88
2022/07/06 02:54:42;;;;;;;3.00;2.23;;;19.80;56.00;;;20.05;42.55;99208.41;4967296;28;119407;-91
2022/07/06 02:57:08;;;;;;;1.90;1.70;;;19.70;56.10;;;19.99;42.64;99207.09;4974143;28;119008;-89
2022/07/06 02:59:36;;;;;;;3.57;2.17;;;19.70;56.40;;;19.96;42.73;99213.41;4975813;28;124045;-89
2022/07/06 03:02:04;;;;;;;3.70;2.03;;;19.60;56.30;;;19.93;42.96;99214.13;4966980;28;123999;-89
2022/07/06 03:04:31;;;;;;;3.00;1.70;;;19.60;56.80;;;19.90;43.03;99214.88;4967560;28;118646;-87
2022/07/06 03:06:58;;;;;;;2.40;2.20;;;19.60;57.00;;;19.86;43.37;99220.41;4981571;28;118765;-89
2022/07/06 03:09:24;;;;;;;7.90;2.50;;;19.50;57.20;;;19.84;43.27;99220.75;4976459;28;124271;-89
2022/07/06 03:11:51;;;;;;;3.60;1.70;;;19.50;57.20;;;19.83;43.52;99221.94;4978260;28;123736;-92
2022/07/06 03:14:18;;;;;;;3.03;1.93;;;19.50;57.30;;;19.82;43.77;99237.13;4982931;28;119854;-90
2022/07/06 03:16:44;;;;;;;4.30;2.30;;;19.40;57.70;;;19.77;43.81;99231.81;4985744;28;119018;-87
2022/07/06 03:19:11;;;;;;;2.20;2.00;;;19.40;58.00;;;19.75;43.89;99233.38;4984866;28;123952;-88
2022/07/06 03:21:37;;;;;;;4.57;1.80;;;19.40;57.90;;;19.75;43.82;99239.78;4980922;28;124195;-87
2022/07/06 03:24:04;;;;;;;5.33;2.47;;;19.40;58.00;;;19.77;43.71;99245.84;4984604;28;120164;-87
2022/07/06 03:26:31;;;;;;;2.00;1.53;;;19.40;58.00;;;19.78;43.71;99241.84;4984855;28;120168;-90
2022/07/06 03:28:57;;;;;;;6.50;2.23;;;19.40;58.00;;;19.82;43.81;99248.34;4980007;28;124123;-88
2022/07/06 03:31:24;;;;;;;3.10;1.90;;;19.40;58.00;;;19.88;43.63;99234.03;4964983;28;124511;-87
2022/07/06 03:33:51;;;;;;;5.40;2.00;;;19.40;58.10;;;19.87;43.77;99238.84;4980101;28;119314;-87
2022/07/06 03:36:18;;;;;;;4.10;2.17;;;19.40;58.20;;;19.85;43.83;99236.44;4980633;28;118209;-90
2022/07/06 03:38:44;;;;;;;6.93;2.20;;;19.40;58.30;;;19.86;44.04;99249.25;4980679;28;124903;-89
2022/07/06 03:41:11;;;;;;;2.20;1.80;;;19.40;58.30;;;19.87;44.01;99244.47;4983152;28;123759;-89
2022/07/06 03:43:38;;;;;;;2.33;1.90;;;19.40;58.40;;;19.90;43.90;99249.34;4990593;28;118724;-88
2022/07/06 03:46:04;;;;;;;1.77;1.67;;;19.40;58.40;;;19.94;43.92;99246.63;4980061;28;119036;-88
2022/07/06 03:48:31;;;;;;;2.73;2.03;;;19.50;58.50;;;19.99;43.79;99240.75;4976892;28;124104;-89
2022/07/06 03:50:57;;;;;;;3.93;2.03;;;19.50;58.50;;;20.01;43.78;99241.97;4980964;28;123925;-89
2022/07/06 03:53:24;;;;;;;2.90;1.77;;;19.50;58.40;;;20.02;43.64;99246.44;4988116;28;119315;-88
2022/07/06 03:58:35;;;;;;;2.50;1.67;;;19.50;58.50;;;20.04;43.60;99246.03;4989210;28;125127;-88
2022/07/06 04:01:01;;;;;;;2.77;1.60;;;19.60;58.60;;;20.08;43.58;99249.75;4991960;28;122875;-88
2022/07/06 04:03:28;;;;;;;5.40;1.60;;;19.60;58.60;;;20.05;44.07;99254.13;4968562;28;119449;-90
2022/07/06 04:05:54;;;;;;;2.70;2.00;;;19.60;58.80;;;20.03;43.78;99252.84;4979388;28;119395;-88
2022/07/06 04:08:21;;;;;;;2.87;1.90;;;19.60;58.90;;;20.10;43.81;99258.63;4986651;28;123601;-88
2022/07/06 04:10:47;;;;;;;6.73;2.50;;;19.60;59.00;;;20.22;44.17;99254.88;4983396;28;123445;-87
2022/07/06 04:13:14;;;;;;;3.90;2.03;;;19.60;59.30;;;20.27;43.81;99258.22;4981566;28;120312;-88
2022/07/06 04:15:40;;;;;;;2.37;2.00;;;19.70;59.40;;;20.34;43.43;99256.75;4987385;28;119943;-88
2022/07/06 04:18:09;;;;;;;2.30;1.70;;;19.70;59.30;;;20.35;43.78;99259.19;4972902;28;123372;-88
2022/07/06 04:20:36;;;;;;;1.87;1.60;;;19.80;59.40;;;20.36;43.61;99263.63;4968421;28;123894;-88
2022/07/06 04:23:03;;;;;;;2.70;2.17;;;19.80;59.30;;;20.36;43.98;99265.63;4971998;28;119235;-87
2022/07/06 04:25:30;;;;;;;3.73;2.30;;;19.80;59.40;;;20.32;43.90;99270.34;4985497;28;119029;-88
2022/07/06 04:27:56;;;;;;;3.97;2.40;;;19.80;59.40;;;20.28;44.21;99275.88;4998285;28;123920;-88
2022/07/06 04:30:23;;;;;;;3.60;2.13;;;19.80;59.60;;;20.23;44.18;99264.91;4984654;28;123579;-87
2022/07/06 04:32:49;;;;;;;2.57;2.33;;;19.80;59.60;;;20.22;44.19;99269.72;4972083;28;118671;-87
2022/07/06 04:35:16;;;;;;;2.20;2.00;;;19.80;59.60;;;20.22;44.48;99283.75;4974907;28;119552;-87
2022/07/06 04:37:42;;;;;;;3.97;1.97;;;19.80;59.80;;;20.20;44.42;99274.91;4989856;28;124150;-88
2022/07/06 04:40:09;;;;;;;4.20;2.20;;;19.80;60.00;;;20.17;44.72;99278.41;4981634;28;123930;-88
2022/07/06 04:42:37;;;;;;;2.17;1.97;;;19.80;60.00;;;20.19;44.51;99278.06;4985478;28;120517;-88
2022/07/06 04:45:06;;;;;;;2.73;2.17;;;19.80;60.20;;;20.19;44.59;99278.88;4975380;28;118710;-88
2022/07/06 04:47:32;;;;;;;3.47;2.43;;;19.80;60.50;;;20.14;44.81;99287.56;4984229;28;123233;-88
2022/07/06 04:49:59;;;;;;;3.50;2.50;;;19.70;60.40;;;20.11;45.41;99279.88;4976668;28;124187;-88
2022/07/06 04:52:27;;;;;;;3.33;2.30;;;19.70;61.20;;;20.09;45.07;99287.84;4982807;28;119326;-88
2022/07/06 04:54:56;;;;;;;3.03;2.40;;;19.70;61.20;;;20.05;45.34;99290.59;4975944;28;118961;-88
2022/07/06 04:57:25;;;;;;;3.37;2.60;;;19.60;61.20;;;19.99;45.76;99292.03;4985362;28;122133;-89
2022/07/06 04:59:52;;;;;;;3.63;2.30;;;19.60;61.50;;;19.94;45.73;99292.31;4972622;28;123751;-88
2022/07/06 05:02:19;;;;;;;4.63;2.70;;;19.60;61.80;;;19.90;45.99;99290.59;4969998;28;120262;-87
2022/07/06 05:04:45;;;;;;;5.30;2.27;;;19.50;62.10;;;19.84;46.19;99293.66;4966328;28;119997;-87
2022/07/06 05:07:12;;;;;;;3.30;2.53;;;19.50;62.50;;;19.80;46.19;99287.19;4969407;28;124125;-88
2022/07/06 05:09:38;;;;;;;4.43;2.60;;;19.40;62.60;;;19.76;46.58;99294.66;4970021;28;124248;-89
2022/07/06 05:12:05;;;;;;;7.00;2.80;;;19.40;63.00;;;19.74;46.68;99297.00;4970620;28;118709;-88
2022/07/06 05:14:32;;;;;;;3.50;2.67;;;19.40;63.10;;;19.73;46.95;99292.59;4976292;28;118240;-92
2022/07/06 05:16:59;;;;;;;6.63;2.83;;;19.30;64.20;;;19.75;46.92;99306.25;4972505;28;124382;-88
2022/07/06 05:19:25;;;;;;;7.33;2.70;;;19.30;63.50;;;19.76;47.07;99305.06;4976195;28;124548;-89
2022/07/06 05:21:52;;;;;;;7.37;2.67;;;19.30;63.80;;;19.77;47.02;99301.91;4973750;28;118635;-91
2022/07/06 05:24:18;;;;;;;4.77;2.80;;;19.30;63.90;;;19.79;47.05;99302.34;4977379;28;118282;-89
2022/07/06 05:26:45;;;;;;;4.03;2.60;;;19.40;64.30;;;19.80;47.33;99295.59;4969847;28;123507;-90
2022/07/06 05:29:12;;;;;;;3.40;2.67;;;19.30;64.30;;;19.82;47.16;99310.03;4973580;28;123400;-89
2022/07/06 05:31:38;;;;;;;3.80;2.40;;;19.40;64.50;;;19.83;47.12;99306.06;4970789;28;119401;-90
2022/07/06 05:34:05;;;;;;;7.13;2.40;;;19.40;64.60;;;19.86;47.38;99304.53;4987324;28;119263;-92
2022/07/06 05:36:31;;;;;;;6.10;2.93;;;19.40;64.70;;;19.89;47.37;99303.00;4974810;28;124282;-91
2022/07/06 05:38:58;;;;;;;4.80;2.60;;;19.40;64.90;;;19.92;47.43;99316.28;4982111;28;123402;-91
2022/07/06 05:41:24;;;;;;;3.93;2.43;;;19.40;65.80;;;19.92;47.11;99319.09;4986335;28;118378;-89
2022/07/06 05:43:51;;;;;;;6.17;2.90;;;19.40;64.90;;;19.97;47.14;99316.84;4986776;28;119668;-89
2022/07/06 05:46:18;;;;;;;3.30;2.17;;;19.40;65.10;;;20.02;47.52;99302.53;4978272;28;124332;-91
2022/07/06 05:51:30;;;;;;;4.03;2.63;;;19.50;65.40;;;20.15;47.00;99300.44;4973458;28;120381;-93
2022/07/06 05:54:00;;;;;;;2.47;2.27;;;19.60;65.20;;;20.22;46.50;99308.19;4980846;28;120094;-93
2022/07/06 05:56:28;;;;;;;4.73;2.50;;;19.60;65.10;;;20.26;46.59;99312.72;4969998;28;123061;-91
2022/07/06 05:58:55;;;;;;;4.83;2.17;;;19.70;65.20;;;20.32;46.72;99315.25;4971377;28;123658;-90
2022/07/06 06:01:21;;;;;;;4.67;2.40;;;19.70;65.00;;;20.40;46.85;99311.44;4984413;28;118377;-89
2022/07/06 06:03:48;;;;;;;2.53;2.30;;;19.80;65.40;;;20.47;46.34;99306.81;4966635;28;119039;-92
2022/07/06 06:06:14;;;;;;;2.40;2.10;;;19.90;65.10;;;20.57;46.20;99319.47;4973011;28;124090;-90
2022/07/06 06:08:41;;;;;;;7.40;3.10;;;20.00;65.00;;;20.63;46.02;99312.41;4978460;28;122690;-89
2022/07/06 06:11:07;;;;;;;2.53;2.10;;;20.00;64.60;;;20.71;45.56;99308.56;4975200;28;119628;-90
2022/07/06 06:13:34;;;;;;;3.50;2.40;;;20.10;64.50;;;20.77;45.73;99302.63;4979296;28;118579;-88
2022/07/06 06:16:03;;;;;;;5.60;2.90;;;20.20;65.00;;;20.83;45.82;99312.41;4972559;28;124572;-91
2022/07/06 06:18:29;;;;;;;4.27;2.60;;;20.20;64.30;;;20.85;45.05;99310.88;4972384;28;123963;-94
2022/07/06 06:20:57;;;;;;;3.27;2.80;;;20.30;64.20;;;20.87;45.26;99310.47;4986478;28;119355;-92
2022/07/06 06:23:23;;;;;;;2.67;2.10;;;20.30;63.90;;;20.88;45.31;99318.53;4983546;28;119272;-91
2022/07/06 06:25:51;;;;;;;3.17;2.57;;;20.30;63.80;;;20.92;45.16;99310.19;4980167;28;123165;-89
2022/07/06 06:28:17;;;;;;;5.60;2.30;;;20.30;63.70;;;20.96;44.84;99317.50;4974519;28;123083;-88
2022/07/06 06:30:44;;;;;;;8.63;2.43;;;20.40;63.70;;;21.03;44.58;99327.25;4978153;28;118168;-88
2022/07/06 06:33:19;;;;;;;2.47;2.27;;;20.50;63.70;;;21.08;44.62;99319.34;4973392;28;119843;-89
2022/07/06 06:35:52;;;;;;;3.70;2.30;;;20.50;63.60;;;21.10;44.89;99327.41;4990569;28;124425;-89
2022/07/06 06:38:21;;;;;;;5.73;2.50;;;20.50;63.40;;;21.08;44.58;99319.34;4969411;28;123814;-89
2022/07/06 06:40:47;;;;;;;4.37;2.30;;;20.50;63.10;;;21.05;44.91;99325.72;4983747;28;119250;-89
2022/07/06 06:43:14;;;;;;;5.97;2.40;;;20.50;63.30;;;21.08;45.02;99324.97;4960711;28;119135;-87
2022/07/06 06:45:40;;;;;;;5.17;2.20;;;20.50;63.40;;;21.16;45.02;99326.75;4972560;28;124070;-89
2022/07/06 06:48:07;;;;;;;3.70;2.23;;;20.50;63.50;;;21.26;44.78;99335.78;4985757;28;123875;-90
2022/07/06 06:50:34;;;;;;;2.97;2.10;;;20.60;63.50;;;21.36;44.31;99332.34;4971991;28;118548;-88
2022/07/06 06:53:02;;;;;;;9.17;2.00;;;20.70;63.30;;;21.47;44.11;99330.59;4989496;28;118930;-91
2022/07/06 06:55:29;;;;;;;8.60;2.30;;;20.80;63.10;;;21.59;43.94;99338.84;4971322;28;124697;-90
2022/07/06 06:57:56;;;;;;;2.80;2.30;;;20.90;63.00;;;21.70;43.59;99324.97;4979391;28;123370;-92
2022/07/06 07:00:24;;;;;;;4.13;2.77;;;20.60;62.30;;;21.83;43.50;99319.97;4975181;28;118612;-93
2022/07/06 07:02:51;;;;;;;7.70;2.20;;;21.00;62.40;;;21.93;43.17;99319.34;4970917;28;119510;-93
2022/07/06 07:05:18;;;;;;;4.03;2.40;;;21.20;62.30;;;22.02;42.94;99324.72;4963674;28;122458;-92
2022/07/06 07:07:45;;;;;;;5.50;2.43;;;21.20;62.00;;;22.07;42.51;99324.41;4990169;28;124761;-89
2022/07/06 07:10:11;;;;;;;2.70;2.27;;;21.30;61.30;;;22.08;41.93;99317.56;4986526;28;119558;-88
2022/07/06 07:12:48;;;;;;;4.80;2.20;;;21.30;60.90;;;22.11;41.75;99316.00;4982503;28;118940;-89
2022/07/06 07:15:16;;;;;;;2.57;1.97;;;21.40;60.80;;;22.15;41.94;99314.06;4984917;28;124073;-89
2022/07/06 07:17:42;;;;;;;3.77;2.17;;;21.40;60.30;;;22.18;41.35;99314.16;4978607;28;122971;-92
2022/07/06 07:20:10;;;;;;;4.17;2.10;;;21.40;59.80;;;22.21;40.94;99309.78;4985817;28;119429;-90
2022/07/06 07:22:37;;;;;;;2.67;1.97;;;21.50;59.60;;;22.25;41.24;99319.09;4982481;28;118445;-91
2022/07/06 07:25:05;;;;;;;3.80;2.17;;;21.50;59.60;;;22.30;41.17;99313.16;4977449;28;123227;-92
2022/07/06 07:27:31;;;;;;;5.70;2.27;;;21.60;60.10;;;22.31;41.04;99303.50;4985123;28;123953;-90
2022/07/06 07:29:58;;;;;;;3.87;2.10;;;21.60;59.40;;;22.34;40.88;99311.19;4976218;28;120292;-87
2022/07/06 07:32:24;;;;;;;5.83;2.57;;;21.60;59.20;;;22.39;41.04;99307.25;4958622;28;120716;-90
2022/07/06 07:34:51;;;;;;;3.87;1.93;;;21.70;59.30;;;22.44;40.87;99316.16;4969736;28;125017;-89
2022/07/06 07:37:17;;;;;;;4.13;2.50;;;21.70;59.20;;;22.49;40.47;99315.84;4980613;28;123923;-91
2022/07/06 07:39:44;;;;;;;2.93;2.13;;;21.80;59.10;;;22.53;40.48;99310.25;4974259;28;119717;-92
2022/07/06 07:42:10;;;;;;;5.40;2.20;;;21.80;59.00;;;22.58;40.65;99298.66;4992046;28;119727;-87
2022/07/06 07:44:38;;;;;;;7.73;2.37;;;21.80;59.00;;;22.60;40.51;99303.94;4980030;28;124576;-87
2022/07/06 07:47:05;;;;;;;8.10;2.70;;;21.80;58.70;;;22.65;40.21;99304.41;4987015;28;123878;-91
2022/07/06 07:49:33;;;;;;;4.10;2.13;;;21.80;58.30;;;22.69;39.75;99305.25;4960312;28;118572;-90
2022/07/06 07:51:59;;;;;;;3.63;2.00;;;21.90;58.10;;;22.72;39.62;99314.94;4975957;28;118961;-89
2022/07/06 07:54:25;;;;;;;5.20;2.00;;;21.90;57.70;;;22.73;39.40;99305.31;4977096;28;123177;-90
2022/07/06 07:56:52;;;;;;;2.70;2.37;;;21.90;57.30;;;22.76;39.69;99304.53;4971304;28;123823;-91
2022/07/06 07:59:18;;;;;;;8.63;2.33;;;22.00;57.60;;;22.79;39.29;99300.97;4977820;28;119272;-90
2022/07/06 08:01:45;;;;;;;3.60;2.40;;;22.00;57.60;;;22.82;39.72;99307.84;4981577;28;118961;-88
2022/07/06 08:04:12;;;;;;;2.47;1.80;;;22.00;57.80;;;22.86;40.03;99314.31;4985703;28;123836;-91
2022/07/06 08:06:39;;;;;;;2.90;2.23;;;22.10;58.00;;;22.89;39.95;99303.13;4992368;28;124195;-88
2022/07/06 08:09:07;;;;;;;6.30;2.87;;;22.20;58.20;;;22.92;39.66;99307.97;4986890;28;119456;-90
2022/07/06 08:11:34;;;;;;;2.83;1.90;;;22.20;58.20;;;22.93;39.87;99315.22;4984843;28;119180;-92
2022/07/06 08:14:02;;;;;;;6.03;2.20;;;22.20;58.20;;;22.96;40.25;99305.22;4989745;28;124021;-93
2022/07/06 08:16:29;;;;;;;3.20;2.50;;;22.20;58.20;;;23.00;40.28;99310.91;4986142;28;123326;-90
2022/07/06 08:18:55;;;;;;;3.10;2.30;;;22.30;58.30;;;23.05;40.00;99307.75;4982360;28;120299;-89
2022/07/06 08:21:22;;;;;;;5.17;1.97;;;22.30;58.10;;;23.11;40.00;99300.59;4984449;28;120592;-90
2022/07/06 08:23:49;;;;;;;14.37;2.50;;;22.40;58.30;;;23.15;40.11;99310.69;4990209;28;123189;-90
2022/07/06 08:26:16;;;;;;;4.30;2.43;;;22.40;58.40;;;23.21;40.17;99297.06;4987475;28;123158;-88
2022/07/06 08:28:42;;;;;;;6.60;2.33;;;22.40;58.50;;;23.23;40.04;99305.94;4979966;28;119289;-91
2022/07/06 08:34:50;;;;;;;4.90;2.20;;;22.50;58.60;;;23.13;40.17;99301.00;5001736;28;124399;-92
2022/07/06 08:37:38;;;;;;;3.80;2.57;;;22.50;58.60;;;23.07;40.59;99308.19;4996254;28;124058;-91
2022/07/06 08:40:06;;;;;;;4.07;2.20;;;22.50;58.70;;;23.04;40.62;99308.94;5003057;28;118994;-87
2022/07/06 08:42:34;;;;;;;3.33;2.17;;;22.40;58.70;;;23.07;40.56;99311.81;4995859;28;119682;-91
2022/07/06 08:45:05;;;;;;;2.77;2.00;;;22.50;58.70;;;23.08;40.26;99304.19;4989854;28;124070;-89
2022/07/06 08:47:32;;;;;;;5.20;2.47;;;22.50;58.50;;;23.12;40.04;99311.47;4996314;28;121861;-91
2022/07/06 08:50:01;;;;;;;5.40;2.17;;;22.50;58.40;;;23.14;40.07;99294.16;4982202;28;120273;-88
2022/07/06 08:52:28;;;;;;;6.03;1.70;;;22.50;58.40;;;23.20;40.39;99303.91;4978586;28;118624;-90
2022/07/06 08:54:55;;;;;;;4.07;2.50;;;22.50;58.40;;;23.25;40.24;99303.56;4987300;28;123571;-89
2022/07/06 08:57:22;;;;;;;3.13;2.30;;;22.60;58.60;;;23.29;40.34;99298.78;4987568;28;124164;-89
2022/07/06 08:59:48;;;;;;;2.47;2.13;;;22.60;58.50;;;23.32;40.58;99302.81;4964503;28;123450;-87
2022/07/06 09:02:15;;;;;;;6.10;2.50;;;22.60;58.60;;;23.35;39.93;99311.34;4979555;28;118153;-87
2022/07/06 09:04:44;;;;;;;4.90;1.90;;;22.70;58.50;;;23.37;39.86;99311.75;4969183;28;124852;-90
2022/07/06 09:07:11;;;;;;;3.33;2.17;;;22.70;58.10;;;23.36;39.78;99306.50;4981640;28;122754;-87
2022/07/06 09:09:39;;;;;;;6.27;2.70;;;22.70;57.90;;;23.38;39.55;99309.75;4983922;28;120132;-89
2022/07/06 09:12:12;;;;;;;3.33;2.30;;;22.70;57.70;;;23.41;39.43;99316.63;4983847;28;120198;-88
2022/07/06 09:14:39;;;;;;;3.63;2.30;;;22.80;57.70;;;23.43;39.72;99314.22;4983972;28;124531;-89
2022/07/06 09:17:06;;;;;;;6.43;2.20;;;22.80;57.60;;;23.48;39.68;99319.50;4979708;28;123787;-88
2022/07/06 09:19:34;;;;;;;4.33;2.53;;;22.90;57.60;;;23.53;39.22;99319.97;4979324;28;119619;-89
2022/07/06 09:22:03;;;;;;;3.07;2.20;;;22.90;57.20;;;23.52;39.00;99317.53;4976424;28;118840;-91
2022/07/06 09:24:31;;;;;;;5.20;2.43;;;22.90;56.90;;;23.50;39.07;99322.75;4991028;28;123189;-89
2022/07/06 09:26:59;;;;;;;3.60;2.13;;;22.90;56.70;;;23.52;38.77;99317.53;4973218;28;122980;-90
2022/07/06 09:29:32;;;;;;;6.10;2.30;;;22.90;56.90;;;23.54;39.07;99318.78;4984099;28;118817;-89
2022/07/06 09:32:02;;;;;;;3.50;2.00;;;22.90;56.90;;;23.57;38.91;99329.28;4994944;28;119319;-89
2022/07/06 09:34:46;;;;;;;4.23;2.00;;;22.90;56.80;;;23.58;38.88;99322.44;4966524;28;124880;-89
2022/07/06 09:37:14;;;;;;;6.47;2.40;;;23.00;56.80;;;23.61;39.10;99332.13;4977427;28;124202;-90
2022/07/06 09:39:42;;;;;;;2.53;1.90;;;23.00;56.80;;;23.64;38.81;99339.81;4984545;28;120344;-90
2022/07/06 09:42:09;;;;;;;5.13;2.70;;;23.00;56.70;;;23.71;38.77;99337.13;4988361;28;119108;-91
2022/07/06 09:44:39;;;;;;;4.07;1.90;;;23.10;56.70;;;23.71;38.59;99342.75;4986772;28;122667;-87
2022/07/06 09:47:11;;;;;;;3.30;2.33;;;23.10;56.30;;;23.72;38.10;99333.09;4972131;28;123800;-90
2022/07/06 09:49:40;;;;;;;3.60;2.43;;;23.10;55.80;;;23.71;38.14;99331.47;4983388;28;119568;-83
2022/07/06 09:52:09;;;;;;;3.40;2.27;;;23.10;55.80;;;23.72;38.30;99338.75;4985211;28;119166;-89
2022/07/06 09:54:38;;;;;;;5.43;2.77;;;23.20;55.80;;;23.69;38.01;99336.66;4972006;28;124087;-86
2022/07/06 09:57:06;;;;;;;6.40;2.43;;;23.10;55.50;;;23.69;38.21;99341.50;4970569;28;124428;-86
2022/07/06 09:59:35;;;;;;;3.40;2.20;;;23.10;55.50;;;23.72;38.12;99332.28;4982712;28;120802;-88
2022/07/06 10:02:07;;;;;;;2.17;1.97;;;23.20;55.60;;;23.75;38.06;99332.31;4996918;28;120305;-87
2022/07/06 10:04:34;;;;;;;4.20;2.40;;;23.20;55.60;;;23.77;38.01;99335.56;4977919;28;125218;-85
2022/07/06 10:07:01;;;;;;;5.50;2.50;;;23.20;55.60;;;23.81;38.20;99336.41;4977519;28;123198;-87
2022/07/06 10:09:29;;;;;;;2.97;1.70;;;23.30;55.70;;;23.84;38.44;99340.47;4967793;28;119595;-88
2022/07/06 10:12:01;;;;;;;5.23;2.73;;;23.30;56.00;;;23.87;38.46;99338.88;4975899;28;118423;-88
2022/07/06 10:14:32;;;;;;;6.27;2.40;;;23.30;56.10;;;23.87;38.32;99345.31;4981679;28;124633;-90
2022/07/06 10:17:02;;;;;;;4.37;2.30;;;23.30;56.10;;;23.94;38.12;99355.91;4977209;28;124313;-88
2022/07/06 10:19:30;;;;;;;3.70;2.20;;;23.40;56.00;;;23.96;38.21;99345.81;4976762;28;119638;-88
2022/07/06 10:22:01;;;;;;;3.17;2.23;;;23.40;55.90;;;23.97;38.43;99335.34;4978944;28;119307;-88
2022/07/06 10:24:29;;;;;;;5.97;2.87;;;23.40;56.10;;;23.95;38.58;99341.38;4974014;28;124485;-87
2022/07/06 10:26:56;;;;;;;4.33;2.30;;;23.40;56.30;;;23.98;38.49;99351.06;4985172;28;123947;-89
2022/07/06 10:29:24;;;;;;;5.53;2.00;;;23.40;56.30;;;24.03;38.58;99342.25;4971874;28;119507;-87
2022/07/06 10:31:53;;;;;;;2.70;2.00;;;23.40;56.40;;;24.05;38.64;99348.31;4985357;28;118554;-88
2022/07/06 10:34:20;;;;;;;4.13;2.23;;;23.50;56.50;;;24.08;38.67;99344.72;4979501;28;124006;-88
2022/07/06 10:36:54;;;;;;;4.50;2.03;;;23.50;56.40;;;24.08;38.39;99339.06;4967166;28;124034;-88
2022/07/06 10:42:46;;;;;;;9.90;2.90;;;23.50;56.40;;;24.04;38.43;99343.84;4971147;28;119515;-89